createdAt,value
2023-05-04T00:02:09.668Z,77.56
2023-05-04T00:04:42.960Z,77.85
2023-05-04T00:07:15.301Z,77.91
2023-05-04T00:09:47.875Z,78.04
2023-05-04T00:12:20.421Z,77.98
2023-05-04T00:14:53.000Z,77.80
2023-05-04T00:17:25.343Z,77.65
2023-05-04T00:19:57.608Z,77.73
2023-05-04T00:22:31.670Z,77.85
2023-05-04T00:25:03.838Z,77.96
2023-05-04T00:27:36.293Z,78.47
2023-05-04T00:30:11.314Z,78.74
2023-05-04T00:32:43.526Z,78.33
2023-05-04T00:35:15.877Z,78.42
2023-05-04T00:37:48.138Z,78.49
2023-05-04T00:40:21.147Z,78.50
2023-05-04T00:42:53.287Z,78.55
2023-05-04T00:45:26.016Z,78.54
2023-05-04T00:47:59.165Z,78.66
2023-05-04T00:50:31.794Z,78.75
2023-05-04T00:53:08.778Z,78.96
2023-05-04T00:55:42.056Z,78.94
2023-05-04T00:58:14.359Z,79.03
2023-05-04T01:00:46.635Z,79.10
2023-05-04T01:03:19.881Z,79.32
2023-05-04T01:06:02.724Z,79.34
2023-05-04T01:08:37.270Z,79.69
2023-05-04T01:11:17.301Z,79.65
2023-05-04T01:13:51.356Z,79.39
2023-05-04T01:16:23.785Z,79.79
2023-05-04T01:18:57.446Z,79.63
2023-05-04T01:21:33.168Z,79.60
2023-05-04T01:24:08.378Z,80.16
2023-05-04T01:26:44.764Z,79.81
2023-05-04T01:29:26.448Z,79.79
2023-05-04T01:32:01.330Z,79.93
2023-05-04T01:34:33.684Z,80.05
2023-05-04T01:37:08.235Z,80.35
2023-05-04T01:39:41.690Z,80.59
2023-05-04T01:42:14.263Z,80.40
2023-05-04T01:44:48.402Z,80.17
2023-05-04T01:47:22.812Z,80.35
2023-05-04T01:49:55.292Z,80.27
2023-05-04T01:52:28.919Z,80.36
2023-05-04T01:55:01.087Z,80.38
2023-05-04T01:57:33.224Z,80.55
2023-05-04T02:00:06.240Z,80.71
2023-05-04T02:02:50.947Z,80.90
2023-05-04T02:05:24.377Z,80.97
2023-05-04T02:07:56.573Z,80.85
2023-05-04T02:10:28.908Z,81.26
2023-05-04T02:13:02.106Z,81.11
2023-05-04T02:15:34.967Z,80.86
2023-05-04T02:18:07.311Z,81.16
2023-05-04T02:20:39.460Z,81.06
2023-05-04T02:23:11.700Z,80.88
2023-05-04T02:25:43.955Z,80.89
2023-05-04T02:28:16.265Z,81.18
2023-05-04T02:30:48.754Z,81.19
2023-05-04T02:33:23.512Z,81.15
2023-05-04T02:35:55.729Z,81.11
2023-05-04T02:38:28.917Z,81.36
2023-05-04T02:41:02.120Z,81.26
2023-05-04T02:43:34.294Z,81.33
2023-05-04T02:46:09.257Z,81.12
2023-05-04T02:48:41.395Z,81.12
2023-05-04T02:51:13.613Z,81.38
2023-05-04T02:53:45.804Z,81.52
2023-05-04T02:56:17.973Z,81.53
2023-05-04T02:58:50.203Z,81.50
2023-05-04T03:01:22.515Z,81.59
2023-05-04T03:03:55.415Z,82.03
2023-05-04T03:06:28.019Z,81.72
2023-05-04T03:09:00.738Z,81.58
2023-05-04T03:11:32.915Z,81.57
2023-05-04T03:14:05.170Z,81.64
2023-05-04T03:16:37.647Z,81.80
2023-05-04T03:19:10.453Z,81.83
2023-05-04T03:21:43.179Z,82.02
2023-05-04T03:24:15.934Z,81.94
2023-05-04T03:26:48.503Z,81.86
2023-05-04T03:29:20.872Z,81.59
2023-05-04T03:31:53.741Z,81.71
2023-05-04T03:34:28.306Z,82.20
2023-05-04T03:37:04.425Z,82.16
2023-05-04T03:39:36.609Z,82.45
2023-05-04T03:42:09.216Z,82.63
2023-05-04T03:44:44.164Z,82.75
2023-05-04T03:47:16.353Z,82.68
2023-05-04T03:49:48.936Z,82.74
2023-05-04T03:52:21.120Z,83.00
2023-05-04T03:54:53.466Z,82.91
2023-05-04T03:57:25.891Z,82.91
2023-05-04T03:59:59.659Z,83.13
2023-05-04T04:02:33.017Z,83.18
2023-05-04T04:05:06.560Z,83.37
2023-05-04T04:07:39.716Z,83.20
2023-05-04T04:10:13.262Z,83.39
2023-05-04T04:12:45.593Z,83.47
2023-05-04T04:15:18.732Z,83.49
2023-05-04T04:17:51.044Z,83.64
2023-05-04T04:20:23.239Z,83.66
2023-05-04T04:22:55.400Z,83.74
2023-05-04T04:25:27.571Z,83.97
2023-05-04T04:27:59.783Z,84.14
2023-05-04T04:30:31.970Z,84.17
2023-05-04T04:33:04.369Z,84.25
2023-05-04T04:35:37.106Z,84.31
2023-05-04T04:38:09.882Z,84.64
2023-05-04T04:40:42.142Z,84.84
2023-05-04T04:43:14.331Z,84.96
2023-05-04T04:45:46.855Z,85.15
2023-05-04T04:48:21.490Z,85.33
2023-05-04T04:50:53.961Z,85.44
2023-05-04T04:53:26.099Z,85.65
2023-05-04T04:55:58.262Z,85.86
2023-05-04T04:58:30.258Z,86.10
2023-05-04T05:01:04.535Z,86.35
2023-05-04T05:03:36.758Z,86.59
2023-05-04T05:06:08.877Z,86.83
2023-05-04T05:08:41.842Z,86.70
2023-05-04T05:11:13.935Z,87.06
2023-05-04T05:13:45.959Z,87.08
2023-05-04T05:16:18.212Z,87.39
2023-05-04T05:18:50.821Z,87.13
2023-05-04T05:21:23.304Z,87.12
2023-05-04T05:23:55.413Z,87.09
2023-05-04T05:26:28.002Z,87.13
2023-05-04T05:29:00.141Z,86.84
2023-05-04T05:31:33.206Z,86.65
2023-05-04T05:34:08.337Z,86.37
2023-05-04T05:36:40.524Z,86.51
2023-05-04T05:39:12.631Z,86.39
2023-05-04T05:41:45.027Z,86.14
2023-05-04T05:44:17.112Z,86.02
2023-05-04T05:46:51.884Z,86.17
2023-05-04T05:49:24.351Z,85.88
2023-05-04T05:51:56.495Z,85.32
2023-05-04T05:54:30.577Z,85.60
2023-05-04T05:57:03.344Z,85.57
2023-05-04T05:59:35.359Z,85.12
2023-05-04T06:02:07.900Z,84.60
2023-05-04T06:04:42.897Z,84.03
2023-05-04T06:07:15.021Z,83.27
2023-05-04T06:09:47.038Z,82.94
2023-05-04T06:12:19.017Z,82.46
2023-05-04T06:14:52.401Z,82.56
2023-05-04T06:17:24.481Z,82.57
2023-05-04T06:19:56.828Z,82.54
2023-05-04T06:22:28.978Z,82.24
2023-05-04T06:25:05.312Z,82.04
2023-05-04T06:27:40.201Z,81.81
2023-05-04T06:30:14.131Z,81.47
2023-05-04T06:32:47.913Z,81.15
2023-05-04T06:35:20.328Z,79.84
2023-05-04T06:37:52.435Z,79.75
2023-05-04T06:40:25.564Z,79.07
2023-05-04T06:42:57.892Z,77.92
2023-05-04T06:45:30.114Z,77.45
2023-05-04T06:48:02.482Z,76.54
2023-05-04T06:50:35.957Z,76.11
2023-05-04T06:53:10.236Z,76.17
2023-05-04T06:55:43.350Z,74.70
2023-05-04T06:58:18.137Z,74.62
2023-05-04T07:00:50.222Z,72.75
2023-05-04T07:03:22.410Z,73.02
2023-05-04T07:05:54.538Z,71.24
2023-05-04T07:08:26.865Z,71.12
2023-05-04T07:10:58.928Z,71.00
2023-05-04T07:13:31.292Z,71.03
2023-05-04T07:16:03.983Z,70.72
2023-05-04T07:18:36.577Z,69.35
2023-05-04T07:21:26.660Z,69.13
2023-05-04T07:24:00.093Z,68.55
2023-05-04T07:26:32.309Z,68.13
2023-05-04T07:29:04.522Z,66.67
2023-05-04T07:31:36.981Z,65.40
2023-05-04T07:34:09.016Z,64.68
2023-05-04T07:36:43.167Z,65.24
2023-05-04T07:39:16.695Z,63.61
2023-05-04T07:41:51.699Z,63.49
2023-05-04T07:44:23.694Z,62.43
2023-05-04T07:46:55.779Z,62.38
2023-05-04T07:49:27.964Z,61.06
2023-05-04T07:52:00.167Z,60.95
2023-05-04T07:54:32.238Z,61.50
2023-05-04T07:57:06.108Z,61.14
2023-05-04T07:59:38.277Z,60.15
2023-05-04T08:02:10.520Z,57.06
2023-05-04T08:04:42.711Z,58.90
2023-05-04T08:07:16.548Z,57.56
2023-05-04T08:09:48.679Z,56.85
2023-05-04T08:12:20.814Z,55.24
2023-05-04T08:14:52.842Z,52.40
2023-05-04T08:17:25.212Z,55.06
2023-05-04T08:19:57.409Z,55.86
2023-05-04T08:22:30.442Z,55.04
2023-05-04T08:25:02.741Z,53.96
2023-05-04T08:27:35.371Z,54.66
2023-05-04T08:30:09.563Z,53.94
2023-05-04T08:32:41.660Z,53.64
2023-05-04T08:35:14.452Z,52.61
2023-05-04T08:37:46.576Z,52.83
2023-05-04T08:40:19.431Z,52.45
2023-05-04T08:42:52.634Z,52.18
2023-05-04T08:45:25.783Z,51.05
2023-05-04T08:47:57.855Z,52.22
2023-05-04T08:50:30.105Z,51.07
2023-05-04T08:53:04.130Z,50.94
2023-05-04T08:55:41.461Z,51.03
2023-05-04T08:58:15.598Z,51.18
2023-05-04T09:00:48.639Z,50.59
2023-05-04T09:03:21.613Z,50.95
2023-05-04T09:05:54.662Z,49.57
2023-05-04T09:08:26.897Z,49.53
2023-05-04T09:10:59.800Z,49.70
2023-05-04T09:13:34.110Z,48.49
2023-05-04T09:16:08.082Z,48.61
2023-05-04T09:18:42.728Z,49.32
2023-05-04T09:21:15.358Z,47.81
2023-05-04T09:23:52.472Z,47.95
2023-05-04T09:26:31.786Z,48.66
2023-05-04T09:29:15.614Z,47.49
2023-05-04T09:31:50.318Z,47.27
2023-05-04T09:34:22.570Z,48.08
2023-05-04T09:37:06.637Z,47.73
2023-05-04T09:39:38.770Z,47.45
2023-05-04T09:42:21.114Z,47.13
2023-05-04T09:45:08.320Z,47.22
2023-05-04T09:47:42.264Z,46.78
2023-05-04T09:50:21.068Z,46.76
2023-05-04T09:52:54.662Z,47.09
2023-05-04T09:55:28.260Z,46.47
2023-05-04T09:58:02.207Z,45.21
2023-05-04T10:00:34.550Z,45.97
2023-05-04T10:03:08.770Z,46.02
2023-05-04T10:05:44.006Z,45.09
2023-05-04T10:08:16.927Z,45.72
2023-05-04T10:10:49.469Z,45.72
2023-05-04T10:13:21.543Z,45.62
2023-05-04T10:16:07.471Z,45.23
2023-05-04T10:18:54.119Z,44.27
2023-05-04T10:21:38.256Z,44.59
2023-05-04T10:24:33.354Z,44.81
2023-05-04T10:27:10.411Z,44.79
2023-05-04T10:29:43.656Z,44.73
2023-05-04T10:32:23.096Z,44.36
2023-05-04T10:35:05.722Z,43.88
2023-05-04T10:37:38.714Z,44.56
2023-05-04T10:40:12.543Z,44.06
2023-05-04T10:42:45.536Z,43.67
2023-05-04T10:45:18.872Z,43.81
2023-05-04T10:47:59.910Z,43.64
2023-05-04T10:50:42.139Z,43.78
2023-05-04T10:53:15.712Z,43.09
2023-05-04T10:55:49.728Z,42.85
2023-05-04T10:58:30.624Z,42.98
2023-05-04T11:01:12.675Z,42.94
2023-05-04T11:03:45.080Z,41.77
2023-05-04T11:06:23.938Z,42.14
2023-05-04T11:09:06.389Z,41.83
2023-05-04T11:11:40.807Z,41.36
2023-05-04T11:14:21.970Z,41.46
2023-05-04T11:16:54.152Z,40.92
2023-05-04T11:19:26.211Z,41.27
2023-05-04T11:21:58.247Z,41.06
2023-05-04T11:24:37.858Z,41.51
2023-05-04T11:27:10.326Z,41.58
2023-05-04T11:29:42.406Z,42.32
2023-05-04T11:32:18.133Z,42.13
2023-05-04T11:34:50.306Z,41.62
2023-05-04T11:37:23.359Z,41.72
2023-05-04T11:39:56.140Z,41.29
2023-05-04T11:42:28.790Z,39.92
2023-05-04T11:45:01.357Z,40.81
2023-05-04T11:47:33.585Z,41.18
2023-05-04T11:50:08.165Z,41.15
2023-05-04T11:52:41.591Z,41.06
2023-05-04T11:55:25.568Z,41.23
2023-05-04T11:58:02.267Z,40.11
2023-05-04T12:00:42.308Z,39.58
2023-05-04T12:03:16.514Z,40.28
2023-05-04T12:05:51.569Z,40.61
2023-05-04T12:08:30.426Z,40.14
2023-05-04T12:11:21.733Z,40.00
2023-05-04T12:14:05.290Z,39.97
2023-05-04T12:16:39.349Z,40.28
2023-05-04T12:19:13.087Z,40.13
2023-05-04T12:21:53.777Z,40.07
2023-05-04T12:24:29.049Z,39.22
2023-05-04T12:27:02.130Z,38.88
2023-05-04T12:29:34.398Z,39.95
2023-05-04T12:32:08.930Z,39.73
2023-05-04T12:34:41.454Z,39.49
2023-05-04T12:37:13.668Z,38.97
2023-05-04T12:39:47.140Z,39.01
2023-05-04T12:42:19.280Z,39.29
2023-05-04T12:44:51.458Z,38.84
2023-05-04T12:47:24.857Z,39.41
2023-05-04T12:49:57.118Z,39.40
2023-05-04T12:52:32.162Z,38.96
2023-05-04T12:55:04.585Z,39.14
2023-05-04T12:57:37.653Z,38.91
2023-05-04T13:00:12.038Z,38.78
2023-05-04T13:02:44.570Z,37.48
2023-05-04T13:05:18.481Z,37.85
2023-05-04T13:07:52.697Z,38.43
2023-05-04T13:10:25.729Z,38.49
2023-05-04T13:12:58.333Z,38.23
2023-05-04T13:15:30.725Z,38.84
2023-05-04T13:18:03.225Z,37.64
2023-05-04T13:20:36.299Z,38.07
2023-05-04T13:23:08.801Z,37.40
2023-05-04T13:25:41.279Z,37.38
2023-05-04T13:28:13.514Z,37.43
2023-05-04T13:30:46.039Z,38.19
2023-05-04T13:33:28.620Z,37.87
2023-05-04T13:36:03.366Z,37.97
2023-05-04T13:38:35.519Z,37.80
2023-05-04T13:41:08.129Z,37.70
2023-05-04T13:43:40.538Z,37.63
2023-05-04T13:46:14.656Z,37.20
2023-05-04T13:48:46.915Z,37.56
2023-05-04T13:51:19.492Z,36.83
2023-05-04T13:53:51.749Z,36.78
2023-05-04T13:56:26.826Z,37.04
2023-05-04T13:58:59.020Z,36.96
2023-05-04T14:01:31.423Z,37.07
2023-05-04T14:04:04.057Z,37.11
2023-05-04T14:06:36.190Z,36.57
2023-05-04T14:09:08.597Z,37.00
2023-05-04T14:11:41.471Z,36.41
2023-05-04T14:14:13.952Z,36.66
2023-05-04T14:16:46.574Z,35.95
2023-05-04T14:19:25.588Z,36.13
2023-05-04T14:21:58.158Z,36.22
2023-05-04T14:24:30.735Z,35.91
2023-05-04T14:27:02.862Z,35.98
2023-05-04T14:29:39.572Z,36.00
2023-05-04T14:32:14.492Z,35.52
2023-05-04T14:34:52.100Z,36.11
2023-05-04T14:37:24.257Z,35.96
2023-05-04T14:39:56.412Z,35.44
2023-05-04T14:42:28.611Z,35.37
2023-05-04T14:45:02.302Z,35.19
2023-05-04T14:47:40.139Z,35.10
2023-05-04T14:50:16.004Z,35.21
2023-05-04T14:52:48.687Z,35.42
2023-05-04T14:55:20.938Z,34.51
2023-05-04T14:57:53.002Z,34.71
2023-05-04T15:00:25.653Z,34.76
2023-05-04T15:02:58.151Z,35.03
2023-05-04T15:05:32.627Z,34.95
2023-05-04T15:08:05.035Z,34.94
2023-05-04T15:10:37.440Z,35.17
2023-05-04T15:13:09.707Z,34.55
2023-05-04T15:15:43.129Z,34.83
2023-05-04T15:18:15.450Z,35.02
2023-05-04T15:20:49.998Z,35.01
2023-05-04T15:23:22.281Z,35.05
2023-05-04T15:25:54.541Z,35.19
2023-05-04T15:28:26.708Z,35.17
2023-05-04T15:31:00.662Z,35.10
2023-05-04T15:33:33.873Z,34.89
2023-05-04T15:36:09.250Z,34.94
2023-05-04T15:38:41.509Z,35.10
2023-05-04T15:41:14.353Z,35.03
2023-05-04T15:43:46.526Z,34.89
2023-05-04T15:46:19.846Z,34.84
2023-05-04T15:48:56.768Z,34.97
2023-05-04T15:51:29.793Z,34.65
2023-05-04T15:54:04.102Z,34.46
2023-05-04T15:56:36.546Z,34.55
2023-05-04T15:59:08.795Z,34.68
2023-05-04T16:01:41.426Z,34.60
2023-05-04T16:04:13.956Z,34.37
2023-05-04T16:06:48.843Z,34.43
2023-05-04T16:09:21.057Z,34.48
2023-05-04T16:11:53.154Z,34.59
2023-05-04T16:14:25.649Z,34.47
2023-05-04T16:16:57.955Z,34.62
2023-05-04T16:19:30.261Z,34.74
2023-05-04T16:22:03.282Z,34.58
2023-05-04T16:24:36.350Z,34.67
2023-05-04T16:27:08.845Z,34.68
2023-05-04T16:29:41.160Z,34.84
2023-05-04T16:32:13.281Z,34.75
2023-05-04T16:34:48.056Z,34.69
2023-05-04T16:37:23.321Z,35.01
2023-05-04T16:39:56.713Z,34.86
2023-05-04T16:42:28.976Z,34.71
2023-05-04T16:45:01.097Z,34.82
2023-05-04T16:47:33.331Z,35.08
2023-05-04T16:50:06.824Z,34.89
2023-05-04T16:52:39.892Z,35.28
2023-05-04T16:55:12.895Z,35.52
2023-05-04T16:57:45.143Z,35.69
2023-05-04T17:00:18.495Z,35.63
2023-05-04T17:02:50.935Z,35.89
2023-05-04T17:05:23.162Z,36.13
2023-05-04T17:07:55.458Z,36.43
2023-05-04T17:10:30.267Z,36.20
2023-05-04T17:13:02.976Z,36.67
2023-05-04T17:15:35.580Z,37.45
2023-05-04T17:18:08.081Z,37.20
2023-05-04T17:20:40.377Z,37.56
2023-05-04T17:23:12.467Z,37.58
2023-05-04T17:25:46.043Z,37.89
2023-05-04T17:28:18.336Z,38.05
2023-05-04T17:30:50.534Z,38.30
2023-05-04T17:33:22.798Z,38.14
2023-05-04T17:35:55.020Z,38.57
2023-05-04T17:38:27.257Z,39.19
2023-05-04T17:40:59.670Z,39.81
2023-05-04T17:43:31.893Z,40.05
2023-05-04T17:46:04.548Z,40.32
2023-05-04T17:48:36.930Z,40.52
2023-05-04T17:51:12.196Z,40.88
2023-05-04T17:53:44.426Z,41.21
2023-05-04T17:56:20.427Z,41.68
2023-05-04T17:58:53.130Z,42.31
2023-05-04T18:01:25.347Z,42.84
2023-05-04T18:03:58.259Z,42.89
2023-05-04T18:06:30.386Z,42.95
2023-05-04T18:09:06.235Z,43.21
2023-05-04T18:11:41.807Z,43.43
2023-05-04T18:14:14.102Z,43.41
2023-05-04T18:16:46.689Z,43.60
2023-05-04T18:19:24.869Z,44.02
2023-05-04T18:21:56.913Z,44.38
2023-05-04T18:24:29.161Z,44.93
2023-05-04T18:27:05.191Z,45.44
2023-05-04T18:29:37.377Z,45.98
2023-05-04T18:32:10.845Z,46.57
2023-05-04T18:34:43.683Z,47.13
2023-05-04T18:37:16.817Z,47.52
2023-05-04T18:39:48.947Z,47.64
2023-05-04T18:42:21.353Z,48.17
2023-05-04T18:44:55.226Z,48.30
2023-05-04T18:47:27.491Z,48.84
2023-05-04T18:50:01.009Z,48.78
2023-05-04T18:52:34.856Z,48.85
2023-05-04T18:55:08.041Z,49.25
2023-05-04T18:57:40.253Z,49.56
2023-05-04T19:00:14.227Z,50.22
2023-05-04T19:02:46.833Z,50.79
2023-05-04T19:05:32.037Z,51.35
2023-05-04T19:08:04.338Z,51.56
2023-05-04T19:10:36.607Z,51.72
2023-05-04T19:13:09.315Z,51.88
2023-05-04T19:15:41.482Z,52.07
2023-05-04T19:18:13.654Z,52.35
2023-05-04T19:20:45.975Z,52.55
2023-05-04T19:23:18.346Z,52.55
2023-05-04T19:25:50.988Z,53.37
2023-05-04T19:28:25.498Z,53.57
2023-05-04T19:30:58.623Z,53.95
2023-05-04T19:33:44.637Z,54.35
2023-05-04T19:36:20.415Z,54.45
2023-05-04T19:38:52.906Z,55.06
2023-05-04T19:41:27.482Z,55.63
2023-05-04T19:43:59.618Z,55.66
2023-05-04T19:46:32.061Z,55.69
2023-05-04T19:49:04.556Z,55.89
2023-05-04T19:51:36.749Z,56.30
2023-05-04T19:54:11.155Z,56.55
2023-05-04T19:56:43.883Z,57.03
2023-05-04T19:59:16.087Z,57.09
2023-05-04T20:01:48.373Z,57.47
2023-05-04T20:04:22.978Z,57.65
2023-05-04T20:06:55.181Z,57.38
2023-05-04T20:09:28.991Z,57.79
2023-05-04T20:12:03.449Z,58.13
2023-05-04T20:14:36.236Z,58.08
2023-05-04T20:17:08.477Z,58.29
2023-05-04T20:19:42.962Z,58.43
2023-05-04T20:22:15.452Z,58.69
2023-05-04T20:24:52.635Z,58.83
2023-05-04T20:27:24.799Z,59.11
2023-05-04T20:29:56.905Z,58.97
2023-05-04T20:32:30.578Z,59.48
2023-05-04T20:35:02.891Z,59.84
2023-05-04T20:37:35.138Z,59.76
2023-05-04T20:40:09.305Z,60.06
2023-05-04T20:42:44.161Z,59.97
2023-05-04T20:45:25.687Z,60.19
2023-05-04T20:47:58.186Z,60.50
2023-05-04T20:50:30.630Z,60.79
2023-05-04T20:53:03.086Z,61.09
2023-05-04T20:55:36.169Z,61.17
2023-05-04T20:58:08.285Z,61.40
2023-05-04T21:00:40.527Z,61.61
2023-05-04T21:03:13.032Z,61.73
2023-05-04T21:05:45.418Z,61.81
2023-05-04T21:08:19.951Z,61.93
2023-05-04T21:10:53.144Z,62.35
2023-05-04T21:13:25.495Z,62.67
2023-05-04T21:15:59.607Z,63.13
2023-05-04T21:18:31.940Z,63.27
2023-05-04T21:21:05.710Z,63.08
2023-05-04T21:23:37.879Z,63.13
2023-05-04T21:26:13.620Z,63.04
2023-05-04T21:28:46.565Z,63.20
2023-05-04T21:31:18.946Z,63.25
2023-05-04T21:33:52.211Z,63.21
2023-05-04T21:36:24.539Z,63.64
2023-05-04T21:38:56.815Z,64.08
2023-05-04T21:41:29.245Z,64.19
2023-05-04T21:44:04.605Z,64.37
2023-05-04T21:46:42.271Z,64.74
2023-05-04T21:49:14.533Z,64.66
2023-05-04T21:51:46.800Z,65.01
2023-05-04T21:54:18.997Z,65.14
2023-05-04T21:56:51.103Z,65.40
2023-05-04T21:59:23.267Z,65.42
2023-05-04T22:01:55.405Z,65.62
2023-05-04T22:04:27.634Z,65.91
2023-05-04T22:07:00.059Z,65.92
2023-05-04T22:09:32.462Z,66.18
2023-05-04T22:12:05.621Z,66.55
2023-05-04T22:14:38.563Z,66.57
2023-05-04T22:17:11.601Z,66.76
2023-05-04T22:19:46.315Z,66.85
2023-05-04T22:22:18.632Z,66.91
2023-05-04T22:24:51.003Z,66.84
2023-05-04T22:27:23.160Z,67.31
2023-05-04T22:29:55.656Z,67.19
2023-05-04T22:32:27.853Z,67.44
2023-05-04T22:35:00.445Z,67.83
2023-05-04T22:37:32.679Z,67.87
2023-05-04T22:40:07.504Z,68.11
2023-05-04T22:42:39.878Z,68.05
2023-05-04T22:45:15.039Z,68.34
2023-05-04T22:47:47.385Z,68.19
2023-05-04T22:50:19.754Z,68.40
2023-05-04T22:52:51.985Z,68.32
2023-05-04T22:55:24.225Z,68.51
2023-05-04T22:57:56.739Z,68.88
2023-05-04T23:00:28.974Z,68.90
2023-05-04T23:03:01.589Z,69.16
2023-05-04T23:05:33.911Z,69.30
2023-05-04T23:08:07.674Z,69.22
2023-05-04T23:10:45.059Z,69.41
2023-05-04T23:13:17.256Z,69.58
2023-05-04T23:15:49.538Z,69.55
2023-05-04T23:18:22.089Z,69.89
2023-05-04T23:20:54.293Z,69.88
2023-05-04T23:23:26.633Z,69.91
2023-05-04T23:25:58.868Z,70.07
2023-05-04T23:28:31.641Z,70.32
2023-05-04T23:31:04.018Z,70.44
2023-05-04T23:33:36.141Z,70.45
2023-05-04T23:36:08.823Z,70.66
2023-05-04T23:38:41.030Z,70.79
2023-05-04T23:41:13.491Z,70.80
2023-05-04T23:43:46.817Z,70.78
2023-05-04T23:46:18.939Z,70.76
2023-05-04T23:48:51.227Z,70.94
2023-05-04T23:51:23.350Z,70.95
2023-05-04T23:53:55.810Z,71.22
2023-05-04T23:56:28.154Z,71.43
2023-05-04T23:59:00.287Z,71.50
